sensor_id;sensor_type;location;lat;lon;timestamp;P1;durP1;ratioP1;P2;durP2;ratioP2
12597;SDS011;6364;53.590;9.956;2022-09-24T00:00:46;11.63;;;8.80;;
12597;SDS011;6364;53.590;9.956;2022-09-24T00:03:17;13.93;;;9.02;;
12597;SDS011;6364;53.590;9.956;2022-09-24T00:05:43;11.98;;;8.90;;
12597;SDS011;6364;53.590;9.956;2022-09-24T00:08:09;10.43;;;8.38;;
12597;SDS011;6364;53.590;9.956;2022-09-24T00:10:35;13.95;;;8.57;;
12597;SDS011;6364;53.590;9.956;2022-09-24T00:13:04;16.73;;;9.13;;
12597;SDS011;6364;53.590;9.956;2022-09-24T00:15:34;12.95;;;9.75;;
12597;SDS011;6364;53.590;9.956;2022-09-24T00:18:01;15.88;;;9.65;;
12597;SDS011;6364;53.590;9.956;2022-09-24T00:20:28;13.80;;;9.20;;
12597;SDS011;6364;53.590;9.956;2022-09-24T00:22:54;11.73;;;9.40;;
12597;SDS011;6364;53.590;9.956;2022-09-24T00:25:20;13.60;;;9.93;;
12597;SDS011;6364;53.590;9.956;2022-09-24T00:28:03;14.18;;;10.18;;
12597;SDS011;6364;53.590;9.956;2022-09-24T00:30:32;16.05;;;9.95;;
12597;SDS011;6364;53.590;9.956;2022-09-24T00:32:57;12.75;;;9.93;;
12597;SDS011;6364;53.590;9.956;2022-09-24T00:35:23;16.13;;;9.75;;
12597;SDS011;6364;53.590;9.956;2022-09-24T00:37:49;15.23;;;9.80;;
12597;SDS011;6364;53.590;9.956;2022-09-24T00:40:14;13.13;;;9.45;;
12597;SDS011;6364;53.590;9.956;2022-09-24T00:42:39;14.32;;;9.07;;
12597;SDS011;6364;53.590;9.956;2022-09-24T00:45:07;12.23;;;9.23;;
12597;SDS011;6364;53.590;9.956;2022-09-24T00:47:35;14.73;;;9.80;;
12597;SDS011;6364;53.590;9.956;2022-09-24T00:50:14;14.63;;;9.95;;
12597;SDS011;6364;53.590;9.956;2022-09-24T00:53:22;14.90;;;9.80;;
12597;SDS011;6364;53.590;9.956;2022-09-24T00:55:30;13.73;;;9.38;;
12597;SDS011;6364;53.590;9.956;2022-09-24T00:57:58;16.70;;;9.95;;
12597;SDS011;6364;53.590;9.956;2022-09-24T01:00:27;14.52;;;10.02;;
12597;SDS011;6364;53.590;9.956;2022-09-24T01:02:54;16.05;;;10.23;;
12597;SDS011;6364;53.590;9.956;2022-09-24T01:05:22;15.48;;;10.05;;
12597;SDS011;6364;53.590;9.956;2022-09-24T01:07:48;17.50;;;10.07;;
12597;SDS011;6364;53.590;9.956;2022-09-24T01:10:14;12.43;;;9.77;;
12597;SDS011;6364;53.590;9.956;2022-09-24T01:13:02;14.00;;;9.35;;
12597;SDS011;6364;53.590;9.956;2022-09-24T01:15:54;14.13;;;9.13;;
12597;SDS011;6364;53.590;9.956;2022-09-24T01:18:37;12.85;;;9.88;;
12597;SDS011;6364;53.590;9.956;2022-09-24T01:24:09;16.40;;;9.60;;
12597;SDS011;6364;53.590;9.956;2022-09-24T01:34:43;11.73;;;9.38;;
12597;SDS011;6364;53.590;9.956;2022-09-24T01:37:13;10.93;;;9.38;;
12597;SDS011;6364;53.590;9.956;2022-09-24T01:39:40;14.30;;;10.38;;
12597;SDS011;6364;53.590;9.956;2022-09-24T01:42:06;18.65;;;10.38;;
12597;SDS011;6364;53.590;9.956;2022-09-24T01:44:33;13.38;;;9.35;;
12597;SDS011;6364;53.590;9.956;2022-09-24T01:46:59;12.82;;;9.35;;
12597;SDS011;6364;53.590;9.956;2022-09-24T01:49:25;15.30;;;10.25;;
12597;SDS011;6364;53.590;9.956;2022-09-24T01:51:51;13.40;;;9.85;;
12597;SDS011;6364;53.590;9.956;2022-09-24T01:57:12;14.85;;;11.05;;
12597;SDS011;6364;53.590;9.956;2022-09-24T01:59:43;19.27;;;10.82;;
12597;SDS011;6364;53.590;9.956;2022-09-24T02:02:24;12.57;;;10.75;;
12597;SDS011;6364;53.590;9.956;2022-09-24T02:10:25;13.93;;;10.88;;
12597;SDS011;6364;53.590;9.956;2022-09-24T02:12:55;16.48;;;11.35;;
12597;SDS011;6364;53.590;9.956;2022-09-24T02:15:24;17.92;;;13.82;;
12597;SDS011;6364;53.590;9.956;2022-09-24T02:17:53;15.90;;;11.82;;
12597;SDS011;6364;53.590;9.956;2022-09-24T02:20:22;15.75;;;11.10;;
12597;SDS011;6364;53.590;9.956;2022-09-24T02:22:48;17.98;;;11.25;;
12597;SDS011;6364;53.590;9.956;2022-09-24T02:25:20;13.00;;;10.45;;
12597;SDS011;6364;53.590;9.956;2022-09-24T02:30:15;17.48;;;14.68;;
12597;SDS011;6364;53.590;9.956;2022-09-24T02:32:41;19.90;;;14.98;;
12597;SDS011;6364;53.590;9.956;2022-09-24T02:35:08;21.90;;;14.93;;
12597;SDS011;6364;53.590;9.956;2022-09-24T02:37:35;20.20;;;15.52;;
12597;SDS011;6364;53.590;9.956;2022-09-24T02:40:06;23.02;;;15.85;;
12597;SDS011;6364;53.590;9.956;2022-09-24T02:42:33;19.55;;;15.68;;
12597;SDS011;6364;53.590;9.956;2022-09-24T02:44:58;17.02;;;13.63;;
12597;SDS011;6364;53.590;9.956;2022-09-24T02:47:25;16.02;;;13.35;;
12597;SDS011;6364;53.590;9.956;2022-09-24T02:49:50;22.60;;;13.35;;
12597;SDS011;6364;53.590;9.956;2022-09-24T02:52:16;20.80;;;14.25;;
12597;SDS011;6364;53.590;9.956;2022-09-24T02:54:42;19.17;;;13.57;;
12597;SDS011;6364;53.590;9.956;2022-09-24T02:57:08;17.45;;;13.70;;
12597;SDS011;6364;53.590;9.956;2022-09-24T02:59:34;20.10;;;13.77;;
12597;SDS011;6364;53.590;9.956;2022-09-24T03:01:59;22.48;;;14.60;;
12597;SDS011;6364;53.590;9.956;2022-09-24T03:04:25;23.13;;;15.13;;
12597;SDS011;6364;53.590;9.956;2022-09-24T03:06:50;19.58;;;15.25;;
12597;SDS011;6364;53.590;9.956;2022-09-24T03:09:16;19.35;;;14.75;;
12597;SDS011;6364;53.590;9.956;2022-09-24T03:11:41;21.27;;;15.52;;
12597;SDS011;6364;53.590;9.956;2022-09-24T03:14:06;19.45;;;14.38;;
12597;SDS011;6364;53.590;9.956;2022-09-24T03:16:32;19.95;;;14.38;;
12597;SDS011;6364;53.590;9.956;2022-09-24T03:18:57;20.50;;;16.13;;
12597;SDS011;6364;53.590;9.956;2022-09-24T03:21:23;22.48;;;16.48;;
12597;SDS011;6364;53.590;9.956;2022-09-24T03:23:48;22.45;;;16.98;;
12597;SDS011;6364;53.590;9.956;2022-09-24T03:26:14;22.98;;;16.73;;
12597;SDS011;6364;53.590;9.956;2022-09-24T03:28:41;24.38;;;16.33;;
12597;SDS011;6364;53.590;9.956;2022-09-24T03:31:06;21.92;;;17.25;;
12597;SDS011;6364;53.590;9.956;2022-09-24T03:33:36;23.65;;;16.88;;
12597;SDS011;6364;53.590;9.956;2022-09-24T03:38:33;25.20;;;17.45;;
12597;SDS011;6364;53.590;9.956;2022-09-24T03:40:59;26.50;;;17.80;;
12597;SDS011;6364;53.590;9.956;2022-09-24T03:43:25;24.65;;;18.70;;
12597;SDS011;6364;53.590;9.956;2022-09-24T03:45:51;26.25;;;18.50;;
12597;SDS011;6364;53.590;9.956;2022-09-24T03:48:18;29.13;;;20.90;;
12597;SDS011;6364;53.590;9.956;2022-09-24T03:50:44;30.90;;;21.55;;
12597;SDS011;6364;53.590;9.956;2022-09-24T03:53:10;27.73;;;22.17;;
12597;SDS011;6364;53.590;9.956;2022-09-24T03:55:40;27.77;;;21.48;;
12597;SDS011;6364;53.590;9.956;2022-09-24T03:58:10;26.25;;;20.80;;
12597;SDS011;6364;53.590;9.956;2022-09-24T04:00:36;25.02;;;17.52;;
12597;SDS011;6364;53.590;9.956;2022-09-24T04:03:02;31.00;;;21.48;;
12597;SDS011;6364;53.590;9.956;2022-09-24T04:05:28;25.58;;;18.00;;
12597;SDS011;6364;53.590;9.956;2022-09-24T04:07:54;25.80;;;17.77;;
12597;SDS011;6364;53.590;9.956;2022-09-24T04:10:19;23.90;;;17.73;;
12597;SDS011;6364;53.590;9.956;2022-09-24T04:12:45;23.92;;;18.23;;
12597;SDS011;6364;53.590;9.956;2022-09-24T04:15:11;25.05;;;19.30;;
12597;SDS011;6364;53.590;9.956;2022-09-24T04:17:36;29.48;;;20.25;;
12597;SDS011;6364;53.590;9.956;2022-09-24T04:20:02;28.25;;;21.15;;
12597;SDS011;6364;53.590;9.956;2022-09-24T04:22:28;29.00;;;21.52;;
12597;SDS011;6364;53.590;9.956;2022-09-24T04:24:57;28.85;;;21.20;;
12597;SDS011;6364;53.590;9.956;2022-09-24T04:27:22;28.17;;;22.25;;
12597;SDS011;6364;53.590;9.956;2022-09-24T04:29:48;29.20;;;22.38;;
12597;SDS011;6364;53.590;9.956;2022-09-24T04:32:13;30.98;;;21.20;;
12597;SDS011;6364;53.590;9.956;2022-09-24T04:34:39;32.47;;;22.20;;
12597;SDS011;6364;53.590;9.956;2022-09-24T04:37:04;34.15;;;23.45;;
12597;SDS011;6364;53.590;9.956;2022-09-24T04:39:30;33.97;;;24.23;;
12597;SDS011;6364;53.590;9.956;2022-09-24T04:41:56;35.47;;;25.33;;
12597;SDS011;6364;53.590;9.956;2022-09-24T04:44:21;37.50;;;26.35;;
12597;SDS011;6364;53.590;9.956;2022-09-24T04:46:47;35.17;;;24.73;;
12597;SDS011;6364;53.590;9.956;2022-09-24T04:49:13;37.30;;;26.80;;
12597;SDS011;6364;53.590;9.956;2022-09-24T04:51:38;38.90;;;27.38;;
12597;SDS011;6364;53.590;9.956;2022-09-24T04:54:04;45.95;;;28.08;;
12597;SDS011;6364;53.590;9.956;2022-09-24T04:56:29;38.78;;;28.33;;
12597;SDS011;6364;53.590;9.956;2022-09-24T04:58:56;37.13;;;27.75;;
12597;SDS011;6364;53.590;9.956;2022-09-24T05:01:22;39.20;;;28.50;;
12597;SDS011;6364;53.590;9.956;2022-09-24T05:03:48;40.38;;;29.65;;
12597;SDS011;6364;53.590;9.956;2022-09-24T05:06:13;43.35;;;30.05;;
12597;SDS011;6364;53.590;9.956;2022-09-24T05:08:39;45.47;;;29.52;;
12597;SDS011;6364;53.590;9.956;2022-09-24T05:11:04;46.20;;;29.63;;
12597;SDS011;6364;53.590;9.956;2022-09-24T05:13:30;43.60;;;31.38;;
12597;SDS011;6364;53.590;9.956;2022-09-24T05:15:55;42.50;;;29.27;;
12597;SDS011;6364;53.590;9.956;2022-09-24T05:18:21;40.80;;;27.95;;
12597;SDS011;6364;53.590;9.956;2022-09-24T05:20:46;43.05;;;31.15;;
12597;SDS011;6364;53.590;9.956;2022-09-24T05:23:11;46.03;;;30.90;;
12597;SDS011;6364;53.590;9.956;2022-09-24T05:25:37;39.35;;;28.92;;
12597;SDS011;6364;53.590;9.956;2022-09-24T05:28:22;38.00;;;27.83;;
12597;SDS011;6364;53.590;9.956;2022-09-24T05:30:48;39.15;;;28.65;;
12597;SDS011;6364;53.590;9.956;2022-09-24T05:33:13;38.25;;;25.90;;
12597;SDS011;6364;53.590;9.956;2022-09-24T05:35:39;33.08;;;25.52;;
12597;SDS011;6364;53.590;9.956;2022-09-24T05:38:04;35.00;;;25.40;;
12597;SDS011;6364;53.590;9.956;2022-09-24T05:40:30;36.03;;;27.13;;
12597;SDS011;6364;53.590;9.956;2022-09-24T05:43:13;35.90;;;26.85;;
12597;SDS011;6364;53.590;9.956;2022-09-24T05:45:39;33.28;;;24.50;;
12597;SDS011;6364;53.590;9.956;2022-09-24T05:48:05;34.85;;;25.50;;
12597;SDS011;6364;53.590;9.956;2022-09-24T05:50:31;34.28;;;23.98;;
12597;SDS011;6364;53.590;9.956;2022-09-24T05:52:58;30.27;;;23.75;;
12597;SDS011;6364;53.590;9.956;2022-09-24T05:55:27;32.97;;;23.65;;
12597;SDS011;6364;53.590;9.956;2022-09-24T05:57:53;33.90;;;23.17;;
12597;SDS011;6364;53.590;9.956;2022-09-24T06:00:18;30.95;;;23.85;;
12597;SDS011;6364;53.590;9.956;2022-09-24T06:02:44;30.13;;;22.98;;
12597;SDS011;6364;53.590;9.956;2022-09-24T06:05:09;30.88;;;21.98;;
12597;SDS011;6364;53.590;9.956;2022-09-24T06:07:35;30.67;;;21.55;;
12597;SDS011;6364;53.590;9.956;2022-09-24T06:10:01;26.48;;;20.48;;
12597;SDS011;6364;53.590;9.956;2022-09-24T06:12:26;26.48;;;19.75;;
12597;SDS011;6364;53.590;9.956;2022-09-24T06:14:51;28.58;;;19.13;;
12597;SDS011;6364;53.590;9.956;2022-09-24T06:17:20;24.70;;;18.80;;
12597;SDS011;6364;53.590;9.956;2022-09-24T06:19:45;30.42;;;20.65;;
12597;SDS011;6364;53.590;9.956;2022-09-24T06:22:11;23.38;;;19.02;;
12597;SDS011;6364;53.590;9.956;2022-09-24T06:24:37;27.23;;;19.95;;
12597;SDS011;6364;53.590;9.956;2022-09-24T06:27:02;26.10;;;19.33;;
12597;SDS011;6364;53.590;9.956;2022-09-24T06:29:28;32.35;;;21.63;;
12597;SDS011;6364;53.590;9.956;2022-09-24T06:31:53;29.35;;;21.35;;
12597;SDS011;6364;53.590;9.956;2022-09-24T06:34:19;33.20;;;23.42;;
12597;SDS011;6364;53.590;9.956;2022-09-24T06:36:44;30.77;;;23.50;;
12597;SDS011;6364;53.590;9.956;2022-09-24T06:42:33;40.08;;;26.05;;
12597;SDS011;6364;53.590;9.956;2022-09-24T06:44:59;38.38;;;25.38;;
12597;SDS011;6364;53.590;9.956;2022-09-24T06:47:24;34.63;;;26.08;;
12597;SDS011;6364;53.590;9.956;2022-09-24T06:49:50;40.42;;;27.58;;
12597;SDS011;6364;53.590;9.956;2022-09-24T06:52:15;43.28;;;28.65;;
12597;SDS011;6364;53.590;9.956;2022-09-24T06:54:41;41.38;;;28.05;;
12597;SDS011;6364;53.590;9.956;2022-09-24T06:57:06;43.65;;;28.75;;
12597;SDS011;6364;53.590;9.956;2022-09-24T06:59:32;45.70;;;29.55;;
12597;SDS011;6364;53.590;9.956;2022-09-24T07:01:57;44.33;;;30.15;;
12597;SDS011;6364;53.590;9.956;2022-09-24T07:04:23;45.45;;;30.00;;
12597;SDS011;6364;53.590;9.956;2022-09-24T07:06:48;42.80;;;30.13;;
12597;SDS011;6364;53.590;9.956;2022-09-24T07:11:58;46.80;;;28.52;;
12597;SDS011;6364;53.590;9.956;2022-09-24T07:14:25;41.22;;;28.13;;
12597;SDS011;6364;53.590;9.956;2022-09-24T07:16:50;47.88;;;30.67;;
12597;SDS011;6364;53.590;9.956;2022-09-24T07:19:17;46.10;;;30.60;;
12597;SDS011;6364;53.590;9.956;2022-09-24T07:21:43;42.25;;;28.48;;
12597;SDS011;6364;53.590;9.956;2022-09-24T07:24:08;43.80;;;27.90;;
12597;SDS011;6364;53.590;9.956;2022-09-24T07:26:34;44.85;;;28.98;;
12597;SDS011;6364;53.590;9.956;2022-09-24T07:28:59;43.15;;;27.65;;
12597;SDS011;6364;53.590;9.956;2022-09-24T07:31:26;45.20;;;29.77;;
12597;SDS011;6364;53.590;9.956;2022-09-24T07:33:51;39.00;;;26.65;;
12597;SDS011;6364;53.590;9.956;2022-09-24T07:36:17;43.25;;;27.08;;
12597;SDS011;6364;53.590;9.956;2022-09-24T07:38:43;45.08;;;29.15;;
12597;SDS011;6364;53.590;9.956;2022-09-24T07:41:08;45.35;;;29.02;;
12597;SDS011;6364;53.590;9.956;2022-09-24T07:43:34;54.20;;;31.40;;
12597;SDS011;6364;53.590;9.956;2022-09-24T07:46:00;46.65;;;29.58;;
12597;SDS011;6364;53.590;9.956;2022-09-24T07:48:25;48.35;;;29.58;;
12597;SDS011;6364;53.590;9.956;2022-09-24T07:50:50;48.67;;;31.42;;
12597;SDS011;6364;53.590;9.956;2022-09-24T07:53:16;52.35;;;30.13;;
12597;SDS011;6364;53.590;9.956;2022-09-24T07:55:41;56.92;;;32.85;;
12597;SDS011;6364;53.590;9.956;2022-09-24T07:58:07;53.15;;;32.15;;
12597;SDS011;6364;53.590;9.956;2022-09-24T08:00:36;56.47;;;31.77;;
12597;SDS011;6364;53.590;9.956;2022-09-24T08:03:02;61.97;;;33.75;;
12597;SDS011;6364;53.590;9.956;2022-09-24T08:05:27;59.30;;;34.17;;
12597;SDS011;6364;53.590;9.956;2022-09-24T08:07:54;57.20;;;33.63;;
12597;SDS011;6364;53.590;9.956;2022-09-24T08:10:21;59.97;;;33.70;;
12597;SDS011;6364;53.590;9.956;2022-09-24T08:12:47;64.80;;;33.42;;
12597;SDS011;6364;53.590;9.956;2022-09-24T08:15:12;58.67;;;33.58;;
12597;SDS011;6364;53.590;9.956;2022-09-24T08:17:37;59.45;;;33.95;;
12597;SDS011;6364;53.590;9.956;2022-09-24T08:20:03;61.90;;;34.53;;
12597;SDS011;6364;53.590;9.956;2022-09-24T08:22:29;66.43;;;36.15;;
12597;SDS011;6364;53.590;9.956;2022-09-24T08:24:55;58.15;;;33.25;;
12597;SDS011;6364;53.590;9.956;2022-09-24T08:27:22;59.28;;;34.97;;
12597;SDS011;6364;53.590;9.956;2022-09-24T08:29:49;61.03;;;35.08;;
12597;SDS011;6364;53.590;9.956;2022-09-24T08:32:15;59.55;;;35.08;;
12597;SDS011;6364;53.590;9.956;2022-09-24T08:34:41;65.75;;;36.25;;
12597;SDS011;6364;53.590;9.956;2022-09-24T08:37:07;67.15;;;36.08;;
12597;SDS011;6364;53.590;9.956;2022-09-24T08:39:32;65.28;;;35.60;;
12597;SDS011;6364;53.590;9.956;2022-09-24T08:42:02;61.50;;;32.88;;
12597;SDS011;6364;53.590;9.956;2022-09-24T08:44:45;58.08;;;33.38;;
12597;SDS011;6364;53.590;9.956;2022-09-24T08:47:32;59.17;;;34.40;;
12597;SDS011;6364;53.590;9.956;2022-09-24T08:50:05;58.58;;;34.30;;
12597;SDS011;6364;53.590;9.956;2022-09-24T08:52:38;64.85;;;35.03;;
12597;SDS011;6364;53.590;9.956;2022-09-24T08:58:07;60.92;;;34.58;;
12597;SDS011;6364;53.590;9.956;2022-09-24T09:03:35;56.33;;;33.83;;
12597;SDS011;6364;53.590;9.956;2022-09-24T09:06:08;68.25;;;34.42;;
12597;SDS011;6364;53.590;9.956;2022-09-24T09:11:16;59.10;;;34.78;;
12597;SDS011;6364;53.590;9.956;2022-09-24T09:13:48;63.63;;;35.88;;
12597;SDS011;6364;53.590;9.956;2022-09-24T09:18:45;59.90;;;35.95;;
12597;SDS011;6364;53.590;9.956;2022-09-24T09:21:15;67.10;;;37.10;;
12597;SDS011;6364;53.590;9.956;2022-09-24T09:23:45;62.35;;;35.13;;
12597;SDS011;6364;53.590;9.956;2022-09-24T09:26:12;59.60;;;34.03;;
12597;SDS011;6364;53.590;9.956;2022-09-24T09:28:37;66.18;;;37.05;;
12597;SDS011;6364;53.590;9.956;2022-09-24T09:44:45;71.82;;;37.28;;
12597;SDS011;6364;53.590;9.956;2022-09-24T09:47:14;79.43;;;39.40;;
12597;SDS011;6364;53.590;9.956;2022-09-24T09:49:47;71.43;;;39.90;;
12597;SDS011;6364;53.590;9.956;2022-09-24T09:52:20;68.03;;;39.65;;
12597;SDS011;6364;53.590;9.956;2022-09-24T09:54:48;68.30;;;40.00;;
12597;SDS011;6364;53.590;9.956;2022-09-24T09:57:14;74.07;;;39.70;;
12597;SDS011;6364;53.590;9.956;2022-09-24T09:59:44;80.90;;;43.53;;
12597;SDS011;6364;53.590;9.956;2022-09-24T10:02:14;86.60;;;44.85;;
12597;SDS011;6364;53.590;9.956;2022-09-24T10:04:46;83.13;;;44.53;;
12597;SDS011;6364;53.590;9.956;2022-09-24T10:07:13;83.13;;;44.60;;
12597;SDS011;6364;53.590;9.956;2022-09-24T10:09:39;84.35;;;44.67;;
12597;SDS011;6364;53.590;9.956;2022-09-24T10:12:16;93.55;;;46.28;;
12597;SDS011;6364;53.590;9.956;2022-09-24T10:14:42;90.90;;;46.85;;
12597;SDS011;6364;53.590;9.956;2022-09-24T10:17:16;84.07;;;46.22;;
12597;SDS011;6364;53.590;9.956;2022-09-24T10:19:42;90.22;;;47.28;;
12597;SDS011;6364;53.590;9.956;2022-09-24T10:22:18;87.03;;;47.17;;
12597;SDS011;6364;53.590;9.956;2022-09-24T10:27:11;92.25;;;48.13;;
12597;SDS011;6364;53.590;9.956;2022-09-24T10:29:37;81.18;;;44.80;;
12597;SDS011;6364;53.590;9.956;2022-09-24T10:32:22;82.35;;;45.35;;
12597;SDS011;6364;53.590;9.956;2022-09-24T10:34:56;82.65;;;44.33;;
12597;SDS011;6364;53.590;9.956;2022-09-24T10:37:23;84.50;;;45.72;;
12597;SDS011;6364;53.590;9.956;2022-09-24T10:39:59;88.63;;;45.97;;
12597;SDS011;6364;53.590;9.956;2022-09-24T10:42:26;98.70;;;48.33;;
12597;SDS011;6364;53.590;9.956;2022-09-24T10:44:53;86.78;;;48.72;;
12597;SDS011;6364;53.590;9.956;2022-09-24T10:47:22;85.65;;;47.60;;
12597;SDS011;6364;53.590;9.956;2022-09-24T10:49:54;86.75;;;48.08;;
12597;SDS011;6364;53.590;9.956;2022-09-24T10:53:02;88.15;;;47.65;;
12597;SDS011;6364;53.590;9.956;2022-09-24T10:55:43;92.82;;;48.35;;
12597;SDS011;6364;53.590;9.956;2022-09-24T11:01:13;94.40;;;46.42;;
12597;SDS011;6364;53.590;9.956;2022-09-24T11:10:00;86.38;;;46.22;;
12597;SDS011;6364;53.590;9.956;2022-09-24T11:15:02;79.90;;;45.53;;
12597;SDS011;6364;53.590;9.956;2022-09-24T11:18:26;85.85;;;45.38;;
12597;SDS011;6364;53.590;9.956;2022-09-24T11:39:39;91.68;;;48.67;;
12597;SDS011;6364;53.590;9.956;2022-09-24T11:53:38;83.07;;;47.22;;
12597;SDS011;6364;53.590;9.956;2022-09-24T12:02:00;83.05;;;46.20;;
12597;SDS011;6364;53.590;9.956;2022-09-24T12:04:49;86.78;;;49.42;;
12597;SDS011;6364;53.590;9.956;2022-09-24T12:07:25;86.57;;;49.38;;
12597;SDS011;6364;53.590;9.956;2022-09-24T12:09:59;89.60;;;50.67;;
12597;SDS011;6364;53.590;9.956;2022-09-24T12:12:31;91.85;;;51.08;;
12597;SDS011;6364;53.590;9.956;2022-09-24T12:15:00;90.78;;;50.47;;
12597;SDS011;6364;53.590;9.956;2022-09-24T12:17:47;88.28;;;50.28;;
12597;SDS011;6364;53.590;9.956;2022-09-24T12:22:53;93.28;;;50.03;;
12597;SDS011;6364;53.590;9.956;2022-09-24T12:25:24;95.55;;;51.25;;
12597;SDS011;6364;53.590;9.956;2022-09-24T12:27:50;87.35;;;49.03;;
12597;SDS011;6364;53.590;9.956;2022-09-24T12:46:18;86.93;;;50.17;;
12597;SDS011;6364;53.590;9.956;2022-09-24T12:48:49;87.95;;;46.85;;
12597;SDS011;6364;53.590;9.956;2022-09-24T12:51:16;80.53;;;46.28;;
12597;SDS011;6364;53.590;9.956;2022-09-24T12:53:54;79.22;;;47.50;;
12597;SDS011;6364;53.590;9.956;2022-09-24T12:56:27;81.70;;;45.03;;
12597;SDS011;6364;53.590;9.956;2022-09-24T12:58:54;87.10;;;46.45;;
12597;SDS011;6364;53.590;9.956;2022-09-24T13:04:00;85.47;;;46.80;;
12597;SDS011;6364;53.590;9.956;2022-09-24T13:08:56;85.43;;;47.78;;
12597;SDS011;6364;53.590;9.956;2022-09-24T13:11:32;89.80;;;46.30;;
12597;SDS011;6364;53.590;9.956;2022-09-24T13:14:05;80.65;;;46.95;;
12597;SDS011;6364;53.590;9.956;2022-09-24T13:16:40;80.55;;;46.35;;
12597;SDS011;6364;53.590;9.956;2022-09-24T13:22:00;87.80;;;47.45;;
12597;SDS011;6364;53.590;9.956;2022-09-24T13:24:30;78.55;;;47.95;;
12597;SDS011;6364;53.590;9.956;2022-09-24T13:29:59;84.13;;;47.30;;
12597;SDS011;6364;53.590;9.956;2022-09-24T13:32:30;89.95;;;50.00;;
12597;SDS011;6364;53.590;9.956;2022-09-24T13:34:59;90.72;;;48.88;;
12597;SDS011;6364;53.590;9.956;2022-09-24T13:37:30;93.68;;;50.05;;
12597;SDS011;6364;53.590;9.956;2022-09-24T13:40:00;90.40;;;49.72;;
12597;SDS011;6364;53.590;9.956;2022-09-24T13:42:47;90.18;;;50.20;;
12597;SDS011;6364;53.590;9.956;2022-09-24T13:45:16;89.13;;;49.30;;
12597;SDS011;6364;53.590;9.956;2022-09-24T13:50:53;91.38;;;48.58;;
12597;SDS011;6364;53.590;9.956;2022-09-24T13:56:13;98.57;;;48.70;;
12597;SDS011;6364;53.590;9.956;2022-09-24T13:58:39;88.65;;;48.47;;
12597;SDS011;6364;53.590;9.956;2022-09-24T14:01:14;89.72;;;50.50;;
12597;SDS011;6364;53.590;9.956;2022-09-24T14:06:13;90.25;;;52.00;;
12597;SDS011;6364;53.590;9.956;2022-09-24T14:08:40;97.95;;;51.17;;
12597;SDS011;6364;53.590;9.956;2022-09-24T14:13:46;94.78;;;52.58;;
12597;SDS011;6364;53.590;9.956;2022-09-24T14:16:15;92.68;;;51.05;;
12597;SDS011;6364;53.590;9.956;2022-09-24T14:18:42;95.13;;;53.10;;
12597;SDS011;6364;53.590;9.956;2022-09-24T14:23:37;92.20;;;54.00;;
12597;SDS011;6364;53.590;9.956;2022-09-24T14:26:06;92.85;;;53.45;;
12597;SDS011;6364;53.590;9.956;2022-09-24T14:28:32;102.32;;;54.15;;
12597;SDS011;6364;53.590;9.956;2022-09-24T14:30:58;104.38;;;54.17;;
12597;SDS011;6364;53.590;9.956;2022-09-24T14:33:25;102.30;;;53.55;;
12597;SDS011;6364;53.590;9.956;2022-09-24T14:35:54;97.22;;;51.97;;
12597;SDS011;6364;53.590;9.956;2022-09-24T14:40:54;97.78;;;54.10;;
12597;SDS011;6364;53.590;9.956;2022-09-24T14:43:28;97.60;;;52.88;;
12597;SDS011;6364;53.590;9.956;2022-09-24T14:46:05;91.55;;;51.80;;
12597;SDS011;6364;53.590;9.956;2022-09-24T14:48:43;95.88;;;53.17;;
12597;SDS011;6364;53.590;9.956;2022-09-24T14:54:01;94.25;;;50.50;;
12597;SDS011;6364;53.590;9.956;2022-09-24T14:56:29;97.47;;;51.83;;
12597;SDS011;6364;53.590;9.956;2022-09-24T14:58:56;90.65;;;49.95;;
12597;SDS011;6364;53.590;9.956;2022-09-24T15:01:22;95.07;;;51.85;;
12597;SDS011;6364;53.590;9.956;2022-09-24T15:03:54;87.50;;;51.30;;
12597;SDS011;6364;53.590;9.956;2022-09-24T15:06:31;99.13;;;51.17;;
12597;SDS011;6364;53.590;9.956;2022-09-24T15:08:59;91.15;;;51.88;;
12597;SDS011;6364;53.590;9.956;2022-09-24T15:11:28;92.75;;;50.15;;
12597;SDS011;6364;53.590;9.956;2022-09-24T15:16:28;93.43;;;52.17;;
12597;SDS011;6364;53.590;9.956;2022-09-24T15:21:40;95.15;;;47.40;;
12597;SDS011;6364;53.590;9.956;2022-09-24T15:24:06;82.38;;;48.47;;
12597;SDS011;6364;53.590;9.956;2022-09-24T15:26:33;93.70;;;50.03;;
12597;SDS011;6364;53.590;9.956;2022-09-24T15:28:59;89.13;;;49.35;;
12597;SDS011;6364;53.590;9.956;2022-09-24T15:31:25;91.40;;;50.03;;
12597;SDS011;6364;53.590;9.956;2022-09-24T15:33:51;97.22;;;50.70;;
12597;SDS011;6364;53.590;9.956;2022-09-24T15:36:16;100.63;;;51.30;;
12597;SDS011;6364;53.590;9.956;2022-09-24T15:38:45;104.88;;;51.28;;
12597;SDS011;6364;53.590;9.956;2022-09-24T15:41:12;87.68;;;49.30;;
12597;SDS011;6364;53.590;9.956;2022-09-24T15:43:37;93.78;;;51.17;;
12597;SDS011;6364;53.590;9.956;2022-09-24T15:46:02;91.95;;;49.75;;
12597;SDS011;6364;53.590;9.956;2022-09-24T15:48:28;95.68;;;50.38;;
12597;SDS011;6364;53.590;9.956;2022-09-24T15:50:53;86.30;;;49.38;;
12597;SDS011;6364;53.590;9.956;2022-09-24T15:53:19;117.13;;;50.45;;
12597;SDS011;6364;53.590;9.956;2022-09-24T15:55:48;96.93;;;52.13;;
12597;SDS011;6364;53.590;9.956;2022-09-24T15:58:16;97.50;;;51.35;;
12597;SDS011;6364;53.590;9.956;2022-09-24T16:00:41;101.15;;;52.70;;
12597;SDS011;6364;53.590;9.956;2022-09-24T16:03:26;109.57;;;54.15;;
12597;SDS011;6364;53.590;9.956;2022-09-24T16:05:52;107.93;;;51.22;;
12597;SDS011;6364;53.590;9.956;2022-09-24T16:08:18;107.00;;;54.80;;
12597;SDS011;6364;53.590;9.956;2022-09-24T16:10:43;119.22;;;52.38;;
12597;SDS011;6364;53.590;9.956;2022-09-24T16:13:10;96.88;;;53.88;;
12597;SDS011;6364;53.590;9.956;2022-09-24T16:15:36;109.82;;;54.65;;
12597;SDS011;6364;53.590;9.956;2022-09-24T16:18:01;102.97;;;53.38;;
12597;SDS011;6364;53.590;9.956;2022-09-24T16:20:27;102.53;;;53.30;;
12597;SDS011;6364;53.590;9.956;2022-09-24T16:22:56;94.40;;;53.25;;
12597;SDS011;6364;53.590;9.956;2022-09-24T16:25:21;114.20;;;53.88;;
12597;SDS011;6364;53.590;9.956;2022-09-24T16:27:47;101.60;;;52.90;;
12597;SDS011;6364;53.590;9.956;2022-09-24T16:30:13;98.50;;;50.85;;
12597;SDS011;6364;53.590;9.956;2022-09-24T16:32:39;93.13;;;51.08;;
12597;SDS011;6364;53.590;9.956;2022-09-24T16:35:04;92.47;;;51.03;;
12597;SDS011;6364;53.590;9.956;2022-09-24T16:37:30;92.47;;;50.05;;
12597;SDS011;6364;53.590;9.956;2022-09-24T16:39:56;91.78;;;50.72;;
12597;SDS011;6364;53.590;9.956;2022-09-24T16:42:21;120.30;;;50.60;;
12597;SDS011;6364;53.590;9.956;2022-09-24T16:44:50;96.65;;;51.13;;
12597;SDS011;6364;53.590;9.956;2022-09-24T16:47:15;96.70;;;50.20;;
12597;SDS011;6364;53.590;9.956;2022-09-24T16:49:41;89.38;;;49.67;;
12597;SDS011;6364;53.590;9.956;2022-09-24T16:52:07;93.22;;;49.17;;
12597;SDS011;6364;53.590;9.956;2022-09-24T16:54:32;92.00;;;50.03;;
12597;SDS011;6364;53.590;9.956;2022-09-24T16:56:58;94.20;;;50.30;;
12597;SDS011;6364;53.590;9.956;2022-09-24T16:59:25;94.90;;;48.20;;
12597;SDS011;6364;53.590;9.956;2022-09-24T17:01:51;97.78;;;49.35;;
12597;SDS011;6364;53.590;9.956;2022-09-24T17:04:17;91.57;;;48.88;;
12597;SDS011;6364;53.590;9.956;2022-09-24T17:06:43;88.90;;;47.28;;
12597;SDS011;6364;53.590;9.956;2022-09-24T17:09:09;91.38;;;48.55;;
12597;SDS011;6364;53.590;9.956;2022-09-24T17:11:54;92.43;;;47.97;;
12597;SDS011;6364;53.590;9.956;2022-09-24T17:14:21;92.88;;;47.85;;
12597;SDS011;6364;53.590;9.956;2022-09-24T17:16:46;98.78;;;49.33;;
12597;SDS011;6364;53.590;9.956;2022-09-24T17:19:12;90.40;;;49.20;;
12597;SDS011;6364;53.590;9.956;2022-09-24T17:21:38;97.22;;;47.42;;